Time;durP1;ratioP1;P1;durP2;ratioP2;P2;SDS_P1;SDS_P2;PMS_P1;PMS_P2;Temp;Humidity;BMP_temperature;BMP_pressure;BME280_temperature;BME280_humidity;BME280_pressure;Samples;Min_cycle;Max_cycle;Signal;HPM_P1;HPM_P2
2022/01/18 00:01:44;;;;;;;16.13;4.05;;;;;;;-144.19;100.00;79054.28;6175049;23;20083;-90
2022/01/18 00:04:12;;;;;;;19.30;3.85;;;;;;;-144.19;100.00;79056.25;6176526;23;20025;-89
2022/01/18 00:06:54;;;;;;;17.42;3.75;;;;;;;-144.19;100.00;79064.13;6175455;23;20049;-89
2022/01/18 00:09:38;;;;;;;16.85;3.72;;;;;;;-144.19;100.00;79072.00;6175777;23;20021;-89
2022/01/18 00:12:30;;;;;;;16.80;3.58;;;;;;;-144.19;100.00;79072.00;6175641;23;20021;-88
2022/01/18 00:15:28;;;;;;;13.80;2.55;;;;;;;-144.19;100.00;79083.81;6176351;23;20056;-89
2022/01/18 00:18:11;;;;;;;13.30;2.95;;;;;;;-144.19;100.00;79083.81;6175774;23;20490;-89
2022/01/18 00:21:00;;;;;;;14.50;3.28;;;;;;;-144.19;100.00;79087.78;6151707;23;20044;-89
2022/01/18 00:23:55;;;;;;;13.63;2.55;;;;;;;-144.19;100.00;79101.56;6155048;23;20059;-89
2022/01/18 00:26:32;;;;;;;14.30;3.95;;;;;;;-144.19;100.00;79095.66;6153308;23;20029;-89
2022/01/18 00:29:12;;;;;;;13.23;2.40;;;;;;;-144.19;100.00;79101.56;6151908;23;20029;-89
2022/01/18 00:34:24;;;;;;;12.13;2.60;;;;;;;-144.19;100.00;79119.28;6175991;23;20022;-87
2022/01/18 00:37:00;;;;;;;12.15;2.90;;;;;;;-144.19;100.00;79115.34;6179367;23;20009;-89
2022/01/18 00:39:36;;;;;;;14.07;2.58;;;;;;;-144.19;100.00;79107.47;6155069;23;20029;-90
2022/01/18 00:42:05;;;;;;;11.13;2.00;;;;;;;-144.19;100.00;79107.47;6153046;23;20025;-89
2022/01/18 00:44:32;;;;;;;9.07;2.13;;;;;;;-144.19;100.00;79111.41;6151615;23;20065;-89
2022/01/18 00:47:02;;;;;;;7.57;2.03;;;;;;;-144.19;100.00;79113.38;6150122;23;20021;-89
2022/01/18 00:49:57;;;;;;;7.93;2.30;;;;;;;-144.19;100.00;79111.41;6151036;23;20033;-89
2022/01/18 00:52:36;;;;;;;12.98;1.85;;;;;;;-144.19;100.00;79115.34;6150893;23;20093;-89
2022/01/18 00:55:07;;;;;;;;;;;;;;;-144.19;100.00;79119.28;6177235;23;20032;-89
2022/01/18 00:57:50;;;;;;;;;;;;;;;;;;;;;
2022/01/18 01:00:18;;;;;;;13.48;1.58;;;;;;;-144.19;100.00;79135.03;6176194;23;20057;-88
2022/01/18 01:02:57;;;;;;;8.90;1.40;;;;;;;-144.19;100.00;79121.25;6151262;23;20068;-89
2022/01/18 01:05:26;;;;;;;6.55;1.45;;;;;;;-144.19;100.00;79123.22;6152121;23;20049;-89
2022/01/18 01:07:59;;;;;;;8.88;2.13;;;;;;;-144.19;100.00;79127.16;6151168;23;20029;-88
2022/01/18 01:10:32;;;;;;;9.60;1.50;;;;;;;-144.19;100.00;79123.22;6153003;23;20021;-89
2022/01/18 01:13:02;;;;;;;6.03;1.52;;;;;;;-144.19;100.00;79127.16;6153893;23;20056;-89
2022/01/18 01:16:26;;;;;;;8.18;1.42;;;;;;;-144.19;100.00;79127.16;6177600;23;20025;-89
2022/01/18 01:33:54;;;;;;;10.77;2.85;;;;;;;-144.19;100.00;79107.47;6178136;23;20027;-89
2022/01/18 01:44:49;;;;;;;15.30;4.22;;;;;;;-144.19;100.00;79117.31;6178097;23;20021;-89
2022/01/18 01:47:35;;;;;;;19.33;4.07;;;;;;;-144.19;100.00;79113.38;6177284;23;20049;-89
2022/01/18 01:50:18;;;;;;;11.90;5.68;;;;;;;-144.19;100.00;79123.22;6176197;23;20037;-89
2022/01/18 01:52:55;;;;;;;16.05;4.03;;;;;;;-144.19;100.00;79121.25;6177785;23;20029;-89
2022/01/18 01:55:49;;;;;;;15.45;5.03;;;;;;;-144.19;100.00;79115.34;6176931;23;20025;-89
2022/01/18 01:58:23;;;;;;;14.30;3.30;;;;;;;-144.19;100.00;79095.66;6177462;23;20029;-89
2022/01/18 02:00:54;;;;;;;14.95;4.25;;;;;;;-144.19;100.00;79103.53;6177755;23;20018;-88
2022/01/18 02:03:29;;;;;;;16.55;3.10;;;;;;;-144.19;100.00;79095.66;6177894;23;20029;-89
2022/01/18 02:06:10;;;;;;;12.68;3.25;;;;;;;-144.19;100.00;79111.41;6176661;23;20025;-90
2022/01/18 02:09:03;;;;;;;13.93;3.05;;;;;;;-144.19;100.00;79111.41;6178044;23;20073;-89
2022/01/18 02:11:57;;;;;;;10.02;3.05;;;;;;;-144.19;100.00;79123.22;6165362;23;20025;-90
2022/01/18 02:14:27;;;;;;;12.00;2.40;;;;;;;-144.19;100.00;79127.16;6174133;23;20033;-88
2022/01/18 02:22:40;;;;;;;11.40;3.30;;;;;;;-144.19;100.00;79127.16;6118517;23;20056;-90
2022/01/18 02:25:37;;;;;;;9.85;2.55;;;;;;;-144.19;100.00;79119.28;6156566;23;20095;-89
2022/01/18 02:28:04;;;;;;;14.85;3.05;;;;;;;-144.19;100.00;79125.19;6177081;23;20021;-89
2022/01/18 02:30:37;;;;;;;9.77;2.70;;;;;;;-144.19;100.00;79129.13;6151996;23;20029;-89
2022/01/18 02:33:05;;;;;;;10.70;2.67;;;;;;;-144.19;100.00;79135.03;6152298;23;20057;-88
2022/01/18 02:35:36;;;;;;;13.32;3.20;;;;;;;-144.19;100.00;79131.09;6178289;23;20077;-89
2022/01/18 02:38:04;;;;;;;15.02;3.20;;;;;;;-144.19;100.00;79142.91;6152610;23;20049;-89
2022/01/18 02:40:33;;;;;;;11.18;2.78;;;;;;;-144.19;100.00;79135.03;6178027;23;20018;-89
2022/01/18 02:43:46;;;;;;;11.43;2.67;;;;;;;-144.19;100.00;79131.09;6178344;23;20100;-89
2022/01/18 02:45:52;;;;;;;12.07;3.15;;;;;;;-144.19;100.00;79127.16;6177215;23;20021;-89
2022/01/18 02:48:26;;;;;;;11.60;3.15;;;;;;;-144.19;100.00;79125.19;6151956;23;20048;-89
2022/01/18 02:50:58;;;;;;;15.20;4.07;;;;;;;-144.19;100.00;79111.41;6177719;23;20040;-88
2022/01/18 02:53:26;;;;;;;10.90;3.22;;;;;;;-144.19;100.00;79129.13;6151389;23;20022;-89
2022/01/18 02:55:56;;;;;;;15.63;4.07;;;;;;;-144.19;100.00;79121.25;6152214;23;20020;-89
2022/01/18 02:59:05;;;;;;;10.43;3.70;;;;;;;-144.19;100.00;79135.03;6151108;23;20027;-88
2022/01/18 03:05:00;;;;;;;12.73;3.65;;;;;;;-144.19;100.00;79135.03;6176225;23;20052;-89
2022/01/18 03:07:31;;;;;;;10.38;3.00;;;;;;;-144.19;100.00;79138.97;6178647;23;20049;-90
2022/01/18 03:10:01;;;;;;;12.30;3.35;;;;;;;-144.19;100.00;79131.09;6151599;23;20362;-89
2022/01/18 03:12:33;;;;;;;14.77;3.60;;;;;;;-144.19;100.00;79135.03;6177343;23;20469;-89
2022/01/18 03:15:00;;;;;;;11.40;3.03;;;;;;;-144.19;100.00;79137.00;6177365;23;20021;-90
2022/01/18 03:17:39;;;;;;;15.00;4.18;;;;;;;-144.19;100.00;79138.97;6176895;23;20025;-89
2022/01/18 03:20:42;;;;;;;13.10;3.60;;;;;;;-144.19;100.00;79135.03;6087209;23;20027;-89
2022/01/18 03:23:22;;;;;;;10.52;3.30;;;;;;;-144.19;100.00;79158.69;6087216;23;20030;-89
2022/01/18 03:25:57;;;;;;;13.27;3.83;;;;;;;-144.19;100.00;79158.69;6087018;23;20034;-89
2022/01/18 03:28:30;;;;;;;16.45;3.17;;;;;;;-144.19;100.00;79162.63;6062519;23;20030;-89
2022/01/18 03:31:00;;;;;;;14.60;3.53;;;;;;;-144.19;100.00;79150.78;6086689;23;20015;-89
2022/01/18 03:33:29;;;;;;;18.17;3.40;;;;;;;-144.19;100.00;79146.84;6063609;23;20022;-89
2022/01/18 03:35:57;;;;;;;9.48;3.20;;;;;;;-144.19;100.00;79158.69;6062028;23;20027;-89
2022/01/18 03:38:29;;;;;;;10.55;2.35;;;;;;;-144.19;100.00;79137.00;6062778;23;20034;-89
2022/01/18 03:41:02;;;;;;;8.93;2.70;;;;;;;-144.19;100.00;79148.81;6063151;23;20019;-90
2022/01/18 03:43:34;;;;;;;17.77;3.50;;;;;;;-144.19;100.00;79150.78;6087044;23;20022;-89
2022/01/18 03:46:05;;;;;;;14.77;4.05;;;;;;;-144.19;100.00;79144.88;6086767;23;20053;-89
2022/01/18 03:49:15;;;;;;;17.27;4.28;;;;;;;-144.19;100.00;79160.66;6086272;23;20027;-89
2022/01/18 03:51:27;;;;;;;17.25;3.92;;;;;;;-144.19;100.00;79158.69;6072866;23;20027;-89
2022/01/18 03:53:59;;;;;;;20.23;3.97;;;;;;;-144.19;100.00;79156.72;6087136;23;20027;-89
2022/01/18 03:56:32;;;;;;;15.70;3.47;;;;;;;-144.19;100.00;79144.88;6086463;23;20023;-89
2022/01/18 03:59:00;;;;;;;17.80;5.53;;;;;;;-144.19;100.00;79160.66;6150844;23;20125;-88
2022/01/18 04:01:27;;;;;;;23.77;4.13;;;;;;;-144.19;100.00;79156.72;6150023;23;20017;-89
2022/01/18 04:04:20;;;;;;;15.40;3.30;;;;;;;-144.19;100.00;79162.63;6150720;23;20021;-89
2022/01/18 04:06:48;;;;;;;16.10;3.40;;;;;;;-144.19;100.00;79174.44;6149316;23;20031;-87
2022/01/18 04:09:20;;;;;;;14.00;3.90;;;;;;;-144.19;100.00;79178.38;6176692;23;20020;-89
2022/01/18 04:11:54;;;;;;;18.08;3.63;;;;;;;-144.19;100.00;79170.50;6150893;23;20077;-90
2022/01/18 04:14:32;;;;;;;16.98;3.67;;;;;;;-144.19;100.00;79174.44;6161057;23;20040;-89
2022/01/18 04:17:11;;;;;;;15.95;3.60;;;;;;;-144.19;100.00;79182.31;6176274;23;20033;-90
2022/01/18 04:31:42;;;;;;;19.38;4.43;;;;;;;-144.19;100.00;79164.59;6176792;23;20049;-91
2022/01/18 04:52:44;;;;;;;27.42;6.57;;;;;;;-144.19;100.00;79168.53;5963813;23;20024;-91
2022/01/18 04:55:40;;;;;;;21.77;6.20;;;;;;;-144.19;100.00;79170.50;6065273;23;20022;-91
2022/01/18 04:58:12;;;;;;;20.52;6.47;;;;;;;-144.19;100.00;79174.44;6086258;23;20054;-91
2022/01/18 05:00:53;;;;;;;26.58;5.88;;;;;;;-144.19;100.00;79178.38;6088518;23;20023;-91
2022/01/18 05:08:16;;;;;;;;;;;;;;;;;;;;;
2022/01/18 05:12:08;;;;;;;28.55;6.32;;;;;;;-144.19;100.00;79174.44;6068145;23;20025;-92
2022/01/18 05:15:21;;;;;;;19.42;5.40;;;;;;;-144.19;100.00;79182.31;6088897;23;20100;-92
2022/01/18 05:26:20;;;;;;;;;;;;;;;;;;;;;
2022/01/18 05:29:39;;;;;;;18.40;4.43;;;;;;;-144.19;100.00;79217.75;6032363;23;20079;-90
2022/01/18 05:32:11;;;;;;;22.27;4.97;;;;;;;-144.19;100.00;79213.81;6064830;23;20022;-89
2022/01/18 05:34:52;;;;;;;21.10;4.63;;;;;;;-144.19;100.00;79209.88;6086924;23;20042;-89
2022/01/18 05:37:57;;;;;;;17.23;4.85;;;;;;;-144.19;100.00;79225.66;6159474;23;20033;-91
2022/01/18 05:40:50;;;;;;;19.30;4.65;;;;;;;-144.19;100.00;79227.63;6088964;23;20062;-89
2022/01/18 05:43:53;;;;;;;22.85;4.85;;;;;;;-144.19;100.00;79217.75;6048540;23;20038;-91
2022/01/18 05:46:24;;;;;;;24.13;5.80;;;;;;;-144.19;100.00;79200.03;6088448;23;20027;-89
2022/01/18 05:48:52;;;;;;;25.55;5.35;;;;;;;-144.19;100.00;79205.94;6087764;23;20023;-89
2022/01/18 05:51:55;;;;;;;;;;;;;;;;;;;;;
2022/01/18 05:55:19;;;;;;;23.83;5.47;;;;;;;-144.19;100.00;79227.63;6151976;23;20020;-91
2022/01/18 05:58:07;;;;;;;27.00;4.97;;;;;;;-144.19;100.00;79213.81;6177881;23;20028;-90
2022/01/18 06:00:52;;;;;;;25.35;4.90;;;;;;;-144.19;100.00;79205.94;6176988;23;20087;-90
2022/01/18 06:04:13;;;;;;;21.05;5.55;;;;;;;-144.19;100.00;79233.53;6174830;23;20028;-91
2022/01/18 06:07:04;;;;;;;20.20;5.47;;;;;;;-144.19;100.00;79223.69;6137065;23;20025;-91
2022/01/18 06:10:44;;;;;;;19.92;5.95;;;;;;;-144.19;100.00;79233.53;6176501;23;20353;-90
2022/01/18 06:13:50;;;;;;;;;;;;;;;;;;;;;
2022/01/18 06:17:06;;;;;;;24.38;5.65;;;;;;;-144.19;100.00;79231.56;6177192;23;20480;-90
2022/01/18 06:19:50;;;;;;;29.98;7.38;;;;;;;-144.19;100.00;79235.50;5952413;24;20036;-90
2022/01/18 06:22:20;;;;;;;28.92;6.93;;;;;;;-144.19;100.00;79225.66;6150662;23;20080;-89
2022/01/18 06:24:51;;;;;;;22.80;6.57;;;;;;;-144.19;100.00;79225.66;6175848;23;20021;-90
2022/01/18 06:27:18;;;;;;;23.88;6.93;;;;;;;-144.19;100.00;79217.75;6178266;23;20025;-90
2022/01/18 06:29:48;;;;;;;24.83;6.18;;;;;;;-144.19;100.00;79202.00;6178019;23;20021;-90
2022/01/18 06:32:20;;;;;;;27.52;6.85;;;;;;;-144.19;100.00;79205.94;6178187;23;20060;-89
2022/01/18 06:34:51;;;;;;;17.95;6.03;;;;;;;-144.19;100.00;79221.72;6177234;23;20025;-90
2022/01/18 06:37:21;;;;;;;25.42;6.22;;;;;;;-144.19;100.00;79223.69;6178261;23;20029;-90
2022/01/18 06:40:32;;;;;;;29.83;6.80;;;;;;;-144.19;100.00;79233.53;6068680;23;20310;-90
2022/01/18 06:43:00;;;;;;;23.40;6.35;;;;;;;-144.19;100.00;79233.53;6121749;23;20080;-89
2022/01/18 06:45:31;;;;;;;26.70;5.90;;;;;;;-144.19;100.00;79225.66;6174998;23;20108;-89
2022/01/18 06:48:01;;;;;;;23.58;6.47;;;;;;;-144.19;100.00;79219.72;6176743;23;20025;-89
2022/01/18 06:50:28;;;;;;;;;;;;;;;-144.19;100.00;79241.41;6177267;23;20017;-88
2022/01/18 06:52:55;;;;;;;16.58;5.00;;;;;;;-144.19;100.00;79261.09;6177156;23;19917;-87
2022/01/18 06:59:24;;;;;;;21.77;5.57;;;;;;;-144.19;100.00;79253.22;6175424;23;20016;-89
2022/01/18 07:01:52;;;;;;;24.33;5.70;;;;;;;-144.19;100.00;79268.97;6201306;23;20017;-86
2022/01/18 07:04:19;;;;;;;19.10;5.95;;;;;;;-144.19;100.00;79255.19;6176515;23;20034;-87
2022/01/18 07:06:48;;;;;;;22.92;5.82;;;;;;;-144.19;100.00;79261.09;6175873;23;20021;-88
2022/01/18 07:09:15;;;;;;;16.23;5.80;;;;;;;-144.19;100.00;79265.03;6177071;23;20077;-88
2022/01/18 07:11:45;;;;;;;17.73;5.03;;;;;;;-144.19;100.00;79267.00;6176931;23;20021;-88
2022/01/18 07:14:19;;;;;;;17.23;4.32;;;;;;;-144.19;100.00;79265.03;6174992;23;20013;-89
2022/01/18 07:16:49;;;;;;;12.80;4.65;;;;;;;-144.19;100.00;79263.06;6176165;23;20088;-89
2022/01/18 07:19:18;;;;;;;16.48;4.70;;;;;;;-144.19;100.00;79263.06;6177862;23;20040;-89
2022/01/18 07:21:47;;;;;;;16.88;4.90;;;;;;;-144.19;100.00;79253.22;6177234;23;20083;-89
2022/01/18 07:27:21;;;;;;;16.30;5.13;;;;;;;-144.19;100.00;79261.09;6162220;23;20037;-87
2022/01/18 07:29:52;;;;;;;13.45;4.38;;;;;;;-144.19;100.00;79261.09;6177494;23;20040;-89
2022/01/18 07:32:35;;;;;;;16.67;5.15;;;;;;;-144.19;100.00;79251.25;6175448;23;20076;-90
2022/01/18 07:35:03;;;;;;;14.63;4.15;;;;;;;-144.19;100.00;79272.91;6176169;23;20027;-89
2022/01/18 07:37:30;;;;;;;15.52;4.65;;;;;;;-144.19;100.00;79272.91;6177848;23;20032;-90
2022/01/18 07:40:01;;;;;;;10.70;3.55;;;;;;;-144.19;100.00;79263.06;6175398;23;20024;-88
2022/01/18 07:42:28;;;;;;;15.45;4.40;;;;;;;-144.19;100.00;79253.22;6175249;23;20072;-88
2022/01/18 07:44:55;;;;;;;13.30;4.47;;;;;;;-144.19;100.00;79274.88;6175197;23;20477;-89
2022/01/18 07:47:23;;;;;;;;;;;;;;;-144.19;100.00;79268.97;6175967;23;20033;-88
2022/01/18 07:49:50;;;;;;;13.88;3.53;;;;;;;-144.19;100.00;79265.03;6174291;23;19936;-87
2022/01/18 07:52:18;;;;;;;11.57;4.10;;;;;;;-144.19;100.00;79265.03;6176518;23;20031;-87
2022/01/18 07:54:46;;;;;;;10.98;4.32;;;;;;;-144.19;100.00;79263.06;6174759;23;20033;-88
2022/01/18 07:57:18;;;;;;;8.82;3.53;;;;;;;-144.19;100.00;79257.16;6174335;23;20084;-88
2022/01/18 07:59:48;;;;;;;10.57;3.75;;;;;;;-144.19;100.00;79263.06;6174717;23;20036;-87
2022/01/18 08:02:19;;;;;;;9.32;4.07;;;;;;;-144.19;100.00;79261.09;6175874;23;20026;-88
2022/01/18 08:04:46;;;;;;;9.18;3.58;;;;;;;-144.19;100.00;79261.09;6176771;23;20036;-88
2022/01/18 08:07:16;;;;;;;11.02;3.63;;;;;;;-144.19;100.00;79257.16;6175307;23;20045;-88
2022/01/18 08:09:43;;;;;;;14.23;4.00;;;;;;;-144.19;100.00;79253.22;6175896;23;20022;-88
2022/01/18 08:12:11;;;;;;;16.73;4.43;;;;;;;-144.19;100.00;79245.34;6175812;23;20026;-88
2022/01/18 08:14:42;;;;;;;;;;;;;;;-144.19;100.00;79253.22;6176402;23;20026;-88
2022/01/18 08:17:10;;;;;;;10.98;3.05;;;;;;;-144.19;100.00;79265.03;6177209;23;19907;-88
2022/01/18 08:19:37;;;;;;;13.30;3.17;;;;;;;-144.19;100.00;79253.22;6175417;23;20095;-88
2022/01/18 08:22:10;;;;;;;11.15;3.67;;;;;;;-144.19;100.00;79243.38;6175758;23;20018;-88
2022/01/18 08:24:44;;;;;;;8.68;3.53;;;;;;;-144.19;100.00;79259.13;6174562;23;20030;-88
2022/01/18 08:27:15;;;;;;;9.77;3.60;;;;;;;-144.19;100.00;79270.94;6175656;23;20072;-88
2022/01/18 08:29:45;;;;;;;9.88;3.58;;;;;;;-144.19;100.00;79253.22;6174971;23;20176;-88
2022/01/18 08:32:16;;;;;;;12.38;4.32;;;;;;;-144.19;100.00;79270.94;6175388;23;20025;-88
2022/01/18 08:34:44;;;;;;;12.52;3.97;;;;;;;-144.19;100.00;79272.91;6176298;23;20021;-87
2022/01/18 08:37:15;;;;;;;12.57;4.50;;;;;;;-144.19;100.00;79237.47;6178342;23;20012;-88
2022/01/18 08:39:43;;;;;;;12.27;4.30;;;;;;;-144.19;100.00;79253.22;6176129;23;20021;-88
2022/01/18 08:42:13;;;;;;;15.77;4.65;;;;;;;-144.19;100.00;79268.97;6175303;23;20375;-87
2022/01/18 08:45:13;;;;;;;15.48;5.20;;;;;;;-144.19;100.00;79270.94;6176488;23;20109;-90
2022/01/18 08:47:48;;;;;;;17.65;4.93;;;;;;;-144.19;100.00;79243.38;6175757;23;20027;-89
2022/01/18 08:50:22;;;;;;;21.77;7.93;;;;;;;-144.19;100.00;79253.22;6175439;23;20028;-90
2022/01/18 08:53:06;;;;;;;13.95;4.90;;;;;;;-144.19;100.00;79284.75;6171431;23;20029;-90
2022/01/18 08:56:03;;;;;;;15.75;4.10;;;;;;;-144.19;100.00;79274.88;6145975;23;20093;-90
2022/01/18 09:02:50;;;;;;;13.85;4.20;;;;;;;-144.19;100.00;79276.84;6171288;23;20029;-91
2022/01/18 09:10:05;;;;;;;12.63;4.97;;;;;;;-144.19;100.00;79249.28;5894781;24;20040;-89
2022/01/18 09:13:12;;;;;;;11.55;4.57;;;;;;;-144.19;100.00;79249.28;5823923;24;20027;-91
2022/01/18 09:16:10;;;;;;;13.45;4.55;;;;;;;-144.19;100.00;79237.47;6111644;23;20037;-90
2022/01/18 09:22:52;;;;;;;;;;;;;;;;;;;;;
2022/01/18 09:37:55;;;;;;;13.27;4.93;;;;;;;-144.19;100.00;79257.16;5893327;24;20048;-90
2022/01/18 09:41:32;;;;;;;11.98;5.05;;;;;;;-144.19;100.00;79272.91;5847764;24;20291;-91
2022/01/18 09:44:31;;;;;;;12.68;4.93;;;;;;;-144.19;100.00;79241.41;5988849;23;20058;-90
2022/01/18 09:50:35;;;;;;;15.57;5.10;;;;;;;-144.19;100.00;79257.16;6088096;23;20039;-89
2022/01/18 09:53:24;;;;;;;10.73;5.40;;;;;;;-144.19;100.00;79259.13;6170335;23;20032;-89
2022/01/18 09:56:10;;;;;;;18.17;5.80;;;;;;;-144.19;100.00;79245.34;6177073;23;20021;-90
2022/01/18 09:59:41;;;;;;;13.07;5.18;;;;;;;-144.19;100.00;79229.59;6177337;23;20029;-89
2022/01/18 10:02:58;;;;;;;21.65;5.95;;;;;;;-144.19;100.00;79239.44;6030496;23;20027;-89
2022/01/18 10:09:00;;;;;;;20.92;5.35;;;;;;;-144.19;100.00;79249.28;6068035;23;20023;-89
2022/01/18 10:12:12;;;;;;;;;;;;;;;;;;;;;
2022/01/18 10:15:31;;;;;;;15.20;4.40;;;;;;;-144.19;100.00;79265.03;6092458;23;20038;-90
2022/01/18 10:19:08;;;;;;;14.13;4.00;;;;;;;-144.19;100.00;79229.59;6003572;24;20076;-90
2022/01/18 10:23:01;;;;;;;;;;;;;;;;;;;;;
2022/01/18 10:26:26;;;;;;;19.08;4.53;;;;;;;-144.19;100.00;79272.91;5845513;24;20026;-89
2022/01/18 10:33:58;;;;;;;16.30;5.22;;;;;;;-144.19;100.00;79251.25;5986475;23;20071;-90
2022/01/18 10:37:19;;;;;;;16.35;5.43;;;;;;;-144.19;100.00;79233.53;5948886;23;20033;-90
2022/01/18 10:45:03;;;;;;;18.05;4.95;;;;;;;-144.19;100.00;79178.38;5890408;24;20030;-89
2022/01/18 10:56:19;;;;;;;14.73;5.18;;;;;;;-144.19;100.00;79176.41;5777781;24;20027;-91
2022/01/18 10:59:20;;;;;;;12.98;3.78;;;;;;;-144.19;100.00;79229.59;5875409;24;20006;-90
2022/01/18 11:06:37;;;;;;;17.52;5.32;;;;;;;-144.19;100.00;79160.66;5944512;24;20072;-89
2022/01/18 11:13:17;;;;;;;16.15;7.03;;;;;;;-144.19;100.00;79138.97;6070866;23;20029;-90
2022/01/18 11:16:04;;;;;;;14.93;6.78;;;;;;;-144.19;100.00;79142.91;6135591;23;20357;-88
2022/01/18 11:18:36;;;;;;;19.73;8.85;;;;;;;-144.19;100.00;79170.50;6127957;23;20029;-88
2022/01/18 11:21:06;;;;;;;19.98;8.63;;;;;;;-144.19;100.00;79131.09;6127848;23;20053;-91
2022/01/18 11:23:35;;;;;;;21.40;10.38;;;;;;;-144.19;100.00;79113.38;6152791;23;20025;-91
2022/01/18 11:26:02;;;;;;;21.77;10.10;;;;;;;-144.19;100.00;79150.78;6123169;23;20032;-91
2022/01/18 11:28:31;;;;;;;21.42;8.88;;;;;;;-144.19;100.00;79107.47;6096588;23;20026;-89
2022/01/18 11:30:57;;;;;;;15.57;5.80;;;;;;;-144.19;100.00;79162.63;6123442;23;20474;-91
2022/01/18 11:33:27;;;;;;;13.10;5.78;;;;;;;-144.19;100.00;79154.72;6121820;23;20025;-90
2022/01/18 11:36:04;;;;;;;10.48;4.72;;;;;;;-144.19;100.00;79158.69;6098372;23;20022;-90
2022/01/18 11:38:50;;;;;;;14.85;6.35;;;;;;;-144.19;100.00;79160.66;6097877;23;20025;-90
2022/01/18 11:41:26;;;;;;;13.18;4.80;;;;;;;-144.19;100.00;79146.84;6122737;23;20018;-91
2022/01/18 11:43:55;;;;;;;13.38;4.65;;;;;;;-144.19;100.00;79170.50;6121790;23;20025;-90
2022/01/18 11:46:32;;;;;;;15.25;4.78;;;;;;;-144.19;100.00;79137.00;6121949;23;20030;-90
2022/01/18 11:49:04;;;;;;;15.55;4.88;;;;;;;-144.19;100.00;79158.69;6097006;23;20104;-90
2022/01/18 11:51:48;;;;;;;10.82;4.43;;;;;;;-144.19;100.00;79133.06;6123979;23;20028;-91
2022/01/18 11:54:44;;;;;;;14.45;5.85;;;;;;;-144.19;100.00;79170.50;6121883;23;20026;-91
2022/01/18 11:57:23;;;;;;;10.02;4.00;;;;;;;-144.19;100.00;79140.94;6118719;23;20032;-91
2022/01/18 11:59:56;;;;;;;10.38;4.38;;;;;;;-144.19;100.00;79162.63;6121059;23;20100;-90
2022/01/18 12:02:40;;;;;;;8.95;3.40;;;;;;;-144.19;100.00;79158.69;6096855;23;20521;-89
2022/01/18 12:05:17;;;;;;;11.65;4.95;;;;;;;-144.19;100.00;79146.84;6097125;23;20085;-90
2022/01/18 12:07:46;;;;;;;13.35;6.32;;;;;;;-144.19;100.00;79127.16;6097687;23;20489;-89
2022/01/18 12:10:19;;;;;;;11.77;4.43;;;;;;;-144.19;100.00;79154.72;6119065;23;20045;-90
2022/01/18 12:12:46;;;;;;;9.95;4.00;;;;;;;-144.19;100.00;79137.00;6121886;23;20026;-90
2022/01/18 12:15:16;;;;;;;14.55;4.75;;;;;;;-144.19;100.00;79119.28;6122446;23;20028;-90
2022/01/18 12:17:49;;;;;;;13.50;4.95;;;;;;;-144.19;100.00;79146.84;6121363;23;20113;-91
2022/01/18 12:20:33;;;;;;;13.45;4.43;;;;;;;-144.19;100.00;79158.69;6121514;23;20022;-90
2022/01/18 12:23:02;;;;;;;11.18;3.47;;;;;;;-144.19;100.00;79162.63;6122611;23;20411;-91
2022/01/18 12:25:33;;;;;;;13.05;3.45;;;;;;;-144.19;100.00;79150.78;6097575;23;20032;-91
2022/01/18 12:28:51;;;;;;;9.38;3.30;;;;;;;-144.19;100.00;79176.41;6096958;23;20022;-90
2022/01/18 12:31:52;;;;;;;9.60;3.45;;;;;;;-144.19;100.00;79166.56;6097386;23;20033;-90
2022/01/18 12:34:24;;;;;;;10.93;3.47;;;;;;;-144.19;100.00;79135.03;6122066;23;20061;-91
2022/01/18 12:36:52;;;;;;;12.73;4.55;;;;;;;-144.19;100.00;79127.16;6123307;23;20361;-91
2022/01/18 12:39:19;;;;;;;9.18;3.63;;;;;;;-144.19;100.00;79119.28;6098093;23;20022;-91
2022/01/18 12:41:51;;;;;;;14.48;4.85;;;;;;;-144.19;100.00;79101.56;6097291;23;20018;-90
2022/01/18 12:44:20;;;;;;;15.02;4.45;;;;;;;-144.19;100.00;79135.03;6098061;23;20054;-90
2022/01/18 12:46:51;;;;;;;14.55;5.35;;;;;;;-144.19;100.00;79127.16;6122643;23;20026;-91
2022/01/18 12:49:18;;;;;;;13.07;5.53;;;;;;;-144.19;100.00;79158.69;6119850;23;20022;-91
2022/01/18 12:52:04;;;;;;;13.77;4.53;;;;;;;-144.19;100.00;79160.66;6121263;23;20065;-90
2022/01/18 12:54:35;;;;;;;14.70;6.10;;;;;;;-144.19;100.00;79158.69;6121231;23;20060;-90
2022/01/18 12:57:11;;;;;;;21.90;7.85;;;;;;;-144.19;100.00;79156.72;6123186;23;20246;-91
2022/01/18 13:00:08;;;;;;;15.13;6.47;;;;;;;-144.19;100.00;79150.78;6120079;23;20025;-87
2022/01/18 13:02:35;;;;;;;13.43;6.63;;;;;;;-144.19;100.00;79158.69;6095886;23;20022;-87
2022/01/18 13:05:07;;;;;;;;;;;;;;;-144.19;100.00;79138.97;6122502;23;20021;-87
2022/01/18 13:07:48;;;;;;;15.02;5.78;;;;;;;-144.19;100.00;79138.97;6097679;23;19921;-90
2022/01/18 13:10:15;;;;;;;17.70;5.82;;;;;;;-144.19;100.00;79133.06;6124250;23;20105;-87
2022/01/18 13:12:43;;;;;;;8.67;4.87;;;;;;;-144.19;100.00;79140.94;6098834;23;20028;-87
2022/01/18 13:15:13;;;;;;;11.05;4.90;;;;;;;-144.19;100.00;79170.50;6096657;23;20140;-87
2022/01/18 13:23:49;;;;;;;12.57;4.80;;;;;;;-144.19;100.00;79146.84;6124934;23;20028;-89
2022/01/18 13:26:26;;;;;;;13.30;5.60;;;;;;;-144.19;100.00;79144.88;6099188;23;20045;-92
2022/01/18 13:28:52;;;;;;;9.93;5.30;;;;;;;-144.19;100.00;79131.09;6125968;23;20400;-86
2022/01/18 13:31:21;;;;;;;13.05;5.30;;;;;;;-144.19;100.00;79150.78;6099170;23;20037;-85
2022/01/18 13:34:00;;;;;;;11.32;4.93;;;;;;;-144.19;100.00;79156.72;6124745;23;20028;-94
2022/01/18 13:36:29;;;;;;;8.82;4.75;;;;;;;-144.19;100.00;79142.91;6123700;23;20026;-90
2022/01/18 13:38:56;;;;;;;12.30;4.88;;;;;;;-144.19;100.00;79174.44;6123757;23;20402;-89
2022/01/18 13:41:24;;;;;;;13.20;5.53;;;;;;;-144.19;100.00;79186.25;6099577;23;20025;-88
2022/01/18 13:43:52;;;;;;;11.77;6.57;;;;;;;-144.19;100.00;79198.06;6122586;23;20588;-88
2022/01/18 13:46:26;;;;;;;12.18;5.85;;;;;;;-144.19;100.00;79160.66;6124698;23;20030;-89
2022/01/18 13:49:07;;;;;;;10.23;5.10;;;;;;;-144.19;100.00;79184.28;6123745;23;20028;-87
2022/01/18 13:51:33;;;;;;;13.27;5.85;;;;;;;-144.19;100.00;79127.16;6125000;23;20484;-87
2022/01/18 13:54:07;;;;;;;12.18;5.25;;;;;;;-144.19;100.00;79135.03;6122370;23;20022;-87
2022/01/18 13:56:34;;;;;;;10.98;6.18;;;;;;;-144.19;100.00;79131.09;6124027;23;20078;-88
2022/01/18 13:59:08;;;;;;;11.38;5.05;;;;;;;-144.19;100.00;79129.13;6124326;23;20022;-88
2022/01/18 14:01:37;;;;;;;12.63;5.15;;;;;;;-144.19;100.00;79138.97;6124391;23;20358;-87
2022/01/18 14:04:13;;;;;;;10.10;4.40;;;;;;;-144.19;100.00;79154.72;6121942;23;20030;-88
2022/01/18 14:06:42;;;;;;;8.75;4.35;;;;;;;-144.19;100.00;79144.88;6122687;23;20026;-88
2022/01/18 14:09:10;;;;;;;11.95;4.40;;;;;;;-144.19;100.00;79158.69;6098305;23;20034;-86
2022/01/18 14:11:38;;;;;;;11.77;4.00;;;;;;;-144.19;100.00;79140.94;6124312;23;20018;-89
2022/01/18 14:14:18;;;;;;;6.75;3.65;;;;;;;-144.19;100.00;79142.91;6098510;23;20032;-88
2022/01/18 14:16:50;;;;;;;8.25;4.20;;;;;;;-144.19;100.00;79154.72;6098001;23;20022;-88
2022/01/18 14:19:31;;;;;;;10.82;4.28;;;;;;;-144.19;100.00;79162.63;6122466;23;20030;-88
2022/01/18 14:22:00;;;;;;;12.50;4.45;;;;;;;-144.19;100.00;79178.38;6097681;23;20022;-88
2022/01/18 14:24:38;;;;;;;11.93;5.07;;;;;;;-144.19;100.00;79184.28;6097845;23;20025;-87
2022/01/18 14:27:09;;;;;;;6.35;3.60;;;;;;;-144.19;100.00;79182.31;6122360;23;20049;-86
2022/01/18 14:29:41;;;;;;;12.35;3.65;;;;;;;-144.19;100.00;79184.28;6098116;23;20028;-86
2022/01/18 14:32:25;;;;;;;7.57;3.30;;;;;;;-144.19;100.00;79174.44;6122347;23;20021;-86
2022/01/18 14:34:56;;;;;;;8.75;3.72;;;;;;;-144.19;100.00;79146.84;6097153;23;20105;-88
2022/01/18 14:37:42;;;;;;;9.98;4.10;;;;;;;-144.19;100.00;79170.50;6123374;23;20026;-88
2022/01/18 14:40:15;;;;;;;8.10;5.22;;;;;;;-144.19;100.00;79162.63;6122283;23;20036;-88